sensor_id;sensor_type;location;lat;lon;timestamp;P1;P2;P0
62846;PMS5003;49477;35.676;139.586;2023-07-22T00:00:21;8;8;
62846;PMS5003;49477;35.676;139.586;2023-07-22T00:02:50;11;7;
62846;PMS5003;49477;35.676;139.586;2023-07-22T00:05:20;8;6;
62846;PMS5003;49477;35.676;139.586;2023-07-22T00:07:49;7;7;
62846;PMS5003;49477;35.676;139.586;2023-07-22T00:10:19;10;6;
62846;PMS5003;49477;35.676;139.586;2023-07-22T00:12:48;7;6;
62846;PMS5003;49477;35.676;139.586;2023-07-22T00:15:18;8;8;
62846;PMS5003;49477;35.676;139.586;2023-07-22T00:17:47;11;10;
62846;PMS5003;49477;35.676;139.586;2023-07-22T00:20:17;9;9;
62846;PMS5003;49477;35.676;139.586;2023-07-22T00:22:46;7;7;
62846;PMS5003;49477;35.676;139.586;2023-07-22T00:25:16;8;7;
62846;PMS5003;49477;35.676;139.586;2023-07-22T00:27:45;6;6;
62846;PMS5003;49477;35.676;139.586;2023-07-22T00:30:14;7;7;
62846;PMS5003;49477;35.676;139.586;2023-07-22T00:32:44;9;7;
62846;PMS5003;49477;35.676;139.586;2023-07-22T00:35:13;10;7;
62846;PMS5003;49477;35.676;139.586;2023-07-22T00:37:43;8;8;
62846;PMS5003;49477;35.676;139.586;2023-07-22T00:40:12;11;9;
62846;PMS5003;49477;35.676;139.586;2023-07-22T00:42:42;8;8;
62846;PMS5003;49477;35.676;139.586;2023-07-22T00:45:11;9;8;
62846;PMS5003;49477;35.676;139.586;2023-07-22T00:47:41;6;6;
62846;PMS5003;49477;35.676;139.586;2023-07-22T00:50:11;8;8;
62846;PMS5003;49477;35.676;139.586;2023-07-22T00:52:40;5;5;
62846;PMS5003;49477;35.676;139.586;2023-07-22T00:55:10;7;7;
62846;PMS5003;49477;35.676;139.586;2023-07-22T00:57:40;6;6;
62846;PMS5003;49477;35.676;139.586;2023-07-22T01:00:09;8;7;
62846;PMS5003;49477;35.676;139.586;2023-07-22T01:02:40;9;7;
62846;PMS5003;49477;35.676;139.586;2023-07-22T01:05:11;8;8;
62846;PMS5003;49477;35.676;139.586;2023-07-22T01:07:40;10;8;
62846;PMS5003;49477;35.676;139.586;2023-07-22T01:10:13;7;7;
62846;PMS5003;49477;35.676;139.586;2023-07-22T01:12:43;9;8;
62846;PMS5003;49477;35.676;139.586;2023-07-22T01:15:13;8;8;
62846;PMS5003;49477;35.676;139.586;2023-07-22T01:17:42;9;6;
62846;PMS5003;49477;35.676;139.586;2023-07-22T01:20:12;10;7;
62846;PMS5003;49477;35.676;139.586;2023-07-22T01:22:42;6;6;
62846;PMS5003;49477;35.676;139.586;2023-07-22T01:25:17;8;8;
62846;PMS5003;49477;35.676;139.586;2023-07-22T01:27:47;5;5;
62846;PMS5003;49477;35.676;139.586;2023-07-22T01:30:17;7;6;
62846;PMS5003;49477;35.676;139.586;2023-07-22T01:32:46;8;8;
62846;PMS5003;49477;35.676;139.586;2023-07-22T01:35:16;7;7;
62846;PMS5003;49477;35.676;139.586;2023-07-22T01:37:45;8;8;
62846;PMS5003;49477;35.676;139.586;2023-07-22T01:40:15;10;10;
62846;PMS5003;49477;35.676;139.586;2023-07-22T01:42:44;9;9;
62846;PMS5003;49477;35.676;139.586;2023-07-22T01:45:13;8;8;
62846;PMS5003;49477;35.676;139.586;2023-07-22T01:47:43;10;9;
62846;PMS5003;49477;35.676;139.586;2023-07-22T01:50:12;8;6;
62846;PMS5003;49477;35.676;139.586;2023-07-22T01:52:42;8;8;
62846;PMS5003;49477;35.676;139.586;2023-07-22T01:55:12;10;7;
62846;PMS5003;49477;35.676;139.586;2023-07-22T01:57:42;8;8;
62846;PMS5003;49477;35.676;139.586;2023-07-22T02:00:12;8;8;
62846;PMS5003;49477;35.676;139.586;2023-07-22T02:02:42;8;8;
62846;PMS5003;49477;35.676;139.586;2023-07-22T02:05:12;9;9;
62846;PMS5003;49477;35.676;139.586;2023-07-22T02:07:41;9;8;
62846;PMS5003;49477;35.676;139.586;2023-07-22T02:10:11;9;9;
62846;PMS5003;49477;35.676;139.586;2023-07-22T02:12:40;10;10;
62846;PMS5003;49477;35.676;139.586;2023-07-22T02:15:10;13;11;
62846;PMS5003;49477;35.676;139.586;2023-07-22T02:17:39;11;9;
62846;PMS5003;49477;35.676;139.586;2023-07-22T02:20:08;14;11;
62846;PMS5003;49477;35.676;139.586;2023-07-22T02:22:38;10;9;
62846;PMS5003;49477;35.676;139.586;2023-07-22T02:25:07;9;9;
62846;PMS5003;49477;35.676;139.586;2023-07-22T02:27:37;7;7;
62846;PMS5003;49477;35.676;139.586;2023-07-22T02:30:07;10;9;
62846;PMS5003;49477;35.676;139.586;2023-07-22T02:32:37;10;9;
62846;PMS5003;49477;35.676;139.586;2023-07-22T02:35:07;9;9;
62846;PMS5003;49477;35.676;139.586;2023-07-22T02:37:38;12;10;
62846;PMS5003;49477;35.676;139.586;2023-07-22T02:40:07;11;10;
62846;PMS5003;49477;35.676;139.586;2023-07-22T02:42:37;9;9;
62846;PMS5003;49477;35.676;139.586;2023-07-22T02:45:07;9;9;
62846;PMS5003;49477;35.676;139.586;2023-07-22T02:47:37;9;9;
62846;PMS5003;49477;35.676;139.586;2023-07-22T02:50:07;10;8;
62846;PMS5003;49477;35.676;139.586;2023-07-22T02:52:36;9;8;
62846;PMS5003;49477;35.676;139.586;2023-07-22T02:55:09;8;8;
62846;PMS5003;49477;35.676;139.586;2023-07-22T02:57:42;7;6;
62846;PMS5003;49477;35.676;139.586;2023-07-22T03:00:12;8;8;
62846;PMS5003;49477;35.676;139.586;2023-07-22T03:02:43;8;8;
62846;PMS5003;49477;35.676;139.586;2023-07-22T03:05:12;10;10;
62846;PMS5003;49477;35.676;139.586;2023-07-22T03:07:42;8;8;
62846;PMS5003;49477;35.676;139.586;2023-07-22T03:10:11;7;7;
62846;PMS5003;49477;35.676;139.586;2023-07-22T03:12:40;10;10;
62846;PMS5003;49477;35.676;139.586;2023-07-22T03:15:10;9;9;
62846;PMS5003;49477;35.676;139.586;2023-07-22T03:17:40;8;8;
62846;PMS5003;49477;35.676;139.586;2023-07-22T03:20:09;9;9;
62846;PMS5003;49477;35.676;139.586;2023-07-22T03:22:39;8;8;
62846;PMS5003;49477;35.676;139.586;2023-07-22T03:25:09;11;10;
62846;PMS5003;49477;35.676;139.586;2023-07-22T03:27:38;9;9;
62846;PMS5003;49477;35.676;139.586;2023-07-22T03:30:10;11;9;
62846;PMS5003;49477;35.676;139.586;2023-07-22T03:32:41;11;11;
62846;PMS5003;49477;35.676;139.586;2023-07-22T03:35:11;9;9;
62846;PMS5003;49477;35.676;139.586;2023-07-22T03:37:41;10;10;
62846;PMS5003;49477;35.676;139.586;2023-07-22T03:40:11;8;8;
62846;PMS5003;49477;35.676;139.586;2023-07-22T03:42:40;12;11;
62846;PMS5003;49477;35.676;139.586;2023-07-22T03:45:11;10;10;
62846;PMS5003;49477;35.676;139.586;2023-07-22T03:47:40;9;8;
62846;PMS5003;49477;35.676;139.586;2023-07-22T03:50:11;11;10;
62846;PMS5003;49477;35.676;139.586;2023-07-22T03:52:40;10;10;
62846;PMS5003;49477;35.676;139.586;2023-07-22T03:55:10;8;8;
62846;PMS5003;49477;35.676;139.586;2023-07-22T03:57:39;9;9;
62846;PMS5003;49477;35.676;139.586;2023-07-22T04:00:10;9;7;
62846;PMS5003;49477;35.676;139.586;2023-07-22T04:02:39;10;10;
62846;PMS5003;49477;35.676;139.586;2023-07-22T04:05:09;8;8;
62846;PMS5003;49477;35.676;139.586;2023-07-22T04:07:38;9;8;
62846;PMS5003;49477;35.676;139.586;2023-07-22T04:10:08;10;10;
62846;PMS5003;49477;35.676;139.586;2023-07-22T04:12:37;7;7;
62846;PMS5003;49477;35.676;139.586;2023-07-22T04:15:07;11;9;
62846;PMS5003;49477;35.676;139.586;2023-07-22T04:17:37;12;11;
62846;PMS5003;49477;35.676;139.586;2023-07-22T04:20:07;10;10;
62846;PMS5003;49477;35.676;139.586;2023-07-22T04:22:36;9;9;
62846;PMS5003;49477;35.676;139.586;2023-07-22T04:25:06;13;10;
62846;PMS5003;49477;35.676;139.586;2023-07-22T04:27:35;12;11;
62846;PMS5003;49477;35.676;139.586;2023-07-22T04:30:04;13;9;
62846;PMS5003;49477;35.676;139.586;2023-07-22T04:32:34;10;10;
62846;PMS5003;49477;35.676;139.586;2023-07-22T04:35:04;10;10;
62846;PMS5003;49477;35.676;139.586;2023-07-22T04:37:34;8;8;
62846;PMS5003;49477;35.676;139.586;2023-07-22T04:40:04;6;6;
62846;PMS5003;49477;35.676;139.586;2023-07-22T04:42:34;8;8;
62846;PMS5003;49477;35.676;139.586;2023-07-22T04:45:04;10;10;
62846;PMS5003;49477;35.676;139.586;2023-07-22T04:47:34;8;8;
62846;PMS5003;49477;35.676;139.586;2023-07-22T04:50:03;10;9;
62846;PMS5003;49477;35.676;139.586;2023-07-22T04:52:34;9;9;
62846;PMS5003;49477;35.676;139.586;2023-07-22T04:55:03;11;9;
62846;PMS5003;49477;35.676;139.586;2023-07-22T04:57:33;9;9;
62846;PMS5003;49477;35.676;139.586;2023-07-22T05:00:03;8;7;
62846;PMS5003;49477;35.676;139.586;2023-07-22T05:02:33;9;9;
62846;PMS5003;49477;35.676;139.586;2023-07-22T05:05:03;9;8;
62846;PMS5003;49477;35.676;139.586;2023-07-22T05:07:32;11;10;
62846;PMS5003;49477;35.676;139.586;2023-07-22T05:10:02;5;5;
62846;PMS5003;49477;35.676;139.586;2023-07-22T05:12:31;10;8;
62846;PMS5003;49477;35.676;139.586;2023-07-22T05:15:01;8;8;
62846;PMS5003;49477;35.676;139.586;2023-07-22T05:17:30;9;8;
62846;PMS5003;49477;35.676;139.586;2023-07-22T05:20:00;11;9;
62846;PMS5003;49477;35.676;139.586;2023-07-22T05:22:29;11;9;
62846;PMS5003;49477;35.676;139.586;2023-07-22T05:24:59;10;10;
62846;PMS5003;49477;35.676;139.586;2023-07-22T05:27:28;10;9;
62846;PMS5003;49477;35.676;139.586;2023-07-22T05:29:58;9;8;
62846;PMS5003;49477;35.676;139.586;2023-07-22T05:32:28;8;8;
62846;PMS5003;49477;35.676;139.586;2023-07-22T05:34:58;8;8;
62846;PMS5003;49477;35.676;139.586;2023-07-22T05:37:28;10;10;
62846;PMS5003;49477;35.676;139.586;2023-07-22T05:39:57;11;10;
62846;PMS5003;49477;35.676;139.586;2023-07-22T05:42:27;7;7;
62846;PMS5003;49477;35.676;139.586;2023-07-22T05:44:57;7;7;
62846;PMS5003;49477;35.676;139.586;2023-07-22T05:47:27;8;8;
62846;PMS5003;49477;35.676;139.586;2023-07-22T05:49:57;10;10;
62846;PMS5003;49477;35.676;139.586;2023-07-22T05:52:27;10;9;
62846;PMS5003;49477;35.676;139.586;2023-07-22T05:54:57;9;9;
62846;PMS5003;49477;35.676;139.586;2023-07-22T05:57:26;7;7;
62846;PMS5003;49477;35.676;139.586;2023-07-22T05:59:56;8;8;
62846;PMS5003;49477;35.676;139.586;2023-07-22T06:02:25;8;8;
62846;PMS5003;49477;35.676;139.586;2023-07-22T06:04:55;8;8;
62846;PMS5003;49477;35.676;139.586;2023-07-22T06:07:24;9;9;
62846;PMS5003;49477;35.676;139.586;2023-07-22T06:09:53;8;8;
62846;PMS5003;49477;35.676;139.586;2023-07-22T06:12:23;9;7;
62846;PMS5003;49477;35.676;139.586;2023-07-22T06:14:53;9;7;
62846;PMS5003;49477;35.676;139.586;2023-07-22T06:17:21;10;8;
62846;PMS5003;49477;35.676;139.586;2023-07-22T06:19:51;8;8;
62846;PMS5003;49477;35.676;139.586;2023-07-22T06:22:20;6;6;
62846;PMS5003;49477;35.676;139.586;2023-07-22T06:24:50;7;7;
62846;PMS5003;49477;35.676;139.586;2023-07-22T06:27:19;8;6;
62846;PMS5003;49477;35.676;139.586;2023-07-22T06:29:49;10;10;
62846;PMS5003;49477;35.676;139.586;2023-07-22T06:32:19;8;8;
62846;PMS5003;49477;35.676;139.586;2023-07-22T06:34:48;8;7;
62846;PMS5003;49477;35.676;139.586;2023-07-22T06:37:18;6;6;
62846;PMS5003;49477;35.676;139.586;2023-07-22T06:39:47;7;7;
62846;PMS5003;49477;35.676;139.586;2023-07-22T06:42:17;7;7;
62846;PMS5003;49477;35.676;139.586;2023-07-22T06:44:46;6;6;
62846;PMS5003;49477;35.676;139.586;2023-07-22T06:47:16;11;9;
62846;PMS5003;49477;35.676;139.586;2023-07-22T06:49:45;9;9;
62846;PMS5003;49477;35.676;139.586;2023-07-22T06:52:14;11;11;
62846;PMS5003;49477;35.676;139.586;2023-07-22T06:54:45;8;8;
62846;PMS5003;49477;35.676;139.586;2023-07-22T06:57:15;9;9;
62846;PMS5003;49477;35.676;139.586;2023-07-22T06:59:44;12;10;
62846;PMS5003;49477;35.676;139.586;2023-07-22T07:02:14;14;10;
62846;PMS5003;49477;35.676;139.586;2023-07-22T07:04:43;9;9;
62846;PMS5003;49477;35.676;139.586;2023-07-22T07:07:15;12;12;
62846;PMS5003;49477;35.676;139.586;2023-07-22T07:09:44;10;10;
62846;PMS5003;49477;35.676;139.586;2023-07-22T07:12:14;10;9;
62846;PMS5003;49477;35.676;139.586;2023-07-22T07:14:44;9;9;
62846;PMS5003;49477;35.676;139.586;2023-07-22T07:17:13;11;9;
62846;PMS5003;49477;35.676;139.586;2023-07-22T07:19:44;10;10;
62846;PMS5003;49477;35.676;139.586;2023-07-22T07:22:15;11;10;
62846;PMS5003;49477;35.676;139.586;2023-07-22T07:24:44;11;11;
62846;PMS5003;49477;35.676;139.586;2023-07-22T07:27:14;9;9;
62846;PMS5003;49477;35.676;139.586;2023-07-22T07:29:43;8;8;
62846;PMS5003;49477;35.676;139.586;2023-07-22T07:32:12;10;10;
62846;PMS5003;49477;35.676;139.586;2023-07-22T07:34:41;10;10;
62846;PMS5003;49477;35.676;139.586;2023-07-22T07:37:11;9;9;
62846;PMS5003;49477;35.676;139.586;2023-07-22T07:39:40;9;9;
62846;PMS5003;49477;35.676;139.586;2023-07-22T07:42:10;12;11;
62846;PMS5003;49477;35.676;139.586;2023-07-22T07:44:39;11;9;
62846;PMS5003;49477;35.676;139.586;2023-07-22T07:47:10;9;8;
62846;PMS5003;49477;35.676;139.586;2023-07-22T07:49:39;8;8;
62846;PMS5003;49477;35.676;139.586;2023-07-22T07:52:09;10;10;
62846;PMS5003;49477;35.676;139.586;2023-07-22T07:54:38;11;11;
62846;PMS5003;49477;35.676;139.586;2023-07-22T07:57:08;10;9;
62846;PMS5003;49477;35.676;139.586;2023-07-22T07:59:37;10;10;
62846;PMS5003;49477;35.676;139.586;2023-07-22T08:02:07;11;11;
62846;PMS5003;49477;35.676;139.586;2023-07-22T08:04:35;10;10;
62846;PMS5003;49477;35.676;139.586;2023-07-22T08:07:06;9;9;
62846;PMS5003;49477;35.676;139.586;2023-07-22T08:09:35;9;9;
62846;PMS5003;49477;35.676;139.586;2023-07-22T08:12:05;12;11;
62846;PMS5003;49477;35.676;139.586;2023-07-22T08:14:35;9;9;
62846;PMS5003;49477;35.676;139.586;2023-07-22T08:17:04;8;7;
62846;PMS5003;49477;35.676;139.586;2023-07-22T08:19:34;9;9;
62846;PMS5003;49477;35.676;139.586;2023-07-22T08:22:03;10;10;
62846;PMS5003;49477;35.676;139.586;2023-07-22T08:24:33;10;10;
62846;PMS5003;49477;35.676;139.586;2023-07-22T08:27:02;7;7;
62846;PMS5003;49477;35.676;139.586;2023-07-22T08:29:32;11;10;
62846;PMS5003;49477;35.676;139.586;2023-07-22T08:32:01;9;9;
62846;PMS5003;49477;35.676;139.586;2023-07-22T08:34:35;9;9;
62846;PMS5003;49477;35.676;139.586;2023-07-22T08:37:05;10;10;
62846;PMS5003;49477;35.676;139.586;2023-07-22T08:39:34;10;9;
62846;PMS5003;49477;35.676;139.586;2023-07-22T08:42:04;10;10;
62846;PMS5003;49477;35.676;139.586;2023-07-22T08:44:34;8;8;
62846;PMS5003;49477;35.676;139.586;2023-07-22T08:47:12;10;9;
62846;PMS5003;49477;35.676;139.586;2023-07-22T08:49:43;12;11;
62846;PMS5003;49477;35.676;139.586;2023-07-22T08:52:18;9;9;
62846;PMS5003;49477;35.676;139.586;2023-07-22T08:54:49;10;9;
62846;PMS5003;49477;35.676;139.586;2023-07-22T08:57:19;11;11;
62846;PMS5003;49477;35.676;139.586;2023-07-22T08:59:49;9;9;
62846;PMS5003;49477;35.676;139.586;2023-07-22T09:02:19;9;9;
62846;PMS5003;49477;35.676;139.586;2023-07-22T09:04:49;10;10;
62846;PMS5003;49477;35.676;139.586;2023-07-22T09:07:18;9;9;
62846;PMS5003;49477;35.676;139.586;2023-07-22T09:09:49;9;9;
62846;PMS5003;49477;35.676;139.586;2023-07-22T09:12:20;12;8;
62846;PMS5003;49477;35.676;139.586;2023-07-22T09:14:51;11;11;
62846;PMS5003;49477;35.676;139.586;2023-07-22T09:17:21;10;10;
62846;PMS5003;49477;35.676;139.586;2023-07-22T09:19:52;10;10;
62846;PMS5003;49477;35.676;139.586;2023-07-22T09:22:25;11;11;
62846;PMS5003;49477;35.676;139.586;2023-07-22T09:24:54;10;10;
62846;PMS5003;49477;35.676;139.586;2023-07-22T09:27:41;11;10;
62846;PMS5003;49477;35.676;139.586;2023-07-22T09:30:27;12;12;
62846;PMS5003;49477;35.676;139.586;2023-07-22T09:32:58;12;10;
62846;PMS5003;49477;35.676;139.586;2023-07-22T09:35:29;11;10;
62846;PMS5003;49477;35.676;139.586;2023-07-22T09:38:09;15;15;
62846;PMS5003;49477;35.676;139.586;2023-07-22T09:40:40;17;16;
62846;PMS5003;49477;35.676;139.586;2023-07-22T09:43:10;13;12;
62846;PMS5003;49477;35.676;139.586;2023-07-22T09:45:40;15;15;
62846;PMS5003;49477;35.676;139.586;2023-07-22T09:48:14;9;9;
62846;PMS5003;49477;35.676;139.586;2023-07-22T09:50:44;17;15;
62846;PMS5003;49477;35.676;139.586;2023-07-22T09:53:15;10;10;
62846;PMS5003;49477;35.676;139.586;2023-07-22T09:55:44;16;14;
62846;PMS5003;49477;35.676;139.586;2023-07-22T09:58:14;17;14;
62846;PMS5003;49477;35.676;139.586;2023-07-22T10:00:45;13;11;
62846;PMS5003;49477;35.676;139.586;2023-07-22T10:03:18;18;17;
62846;PMS5003;49477;35.676;139.586;2023-07-22T10:05:50;12;10;
62846;PMS5003;49477;35.676;139.586;2023-07-22T10:08:20;13;13;
62846;PMS5003;49477;35.676;139.586;2023-07-22T10:10:53;14;14;
62846;PMS5003;49477;35.676;139.586;2023-07-22T10:13:25;19;17;
62846;PMS5003;49477;35.676;139.586;2023-07-22T10:15:57;13;11;
62846;PMS5003;49477;35.676;139.586;2023-07-22T10:18:26;14;12;
62846;PMS5003;49477;35.676;139.586;2023-07-22T10:20:56;12;11;
62846;PMS5003;49477;35.676;139.586;2023-07-22T10:23:27;11;9;
62846;PMS5003;49477;35.676;139.586;2023-07-22T10:26:01;8;8;
62846;PMS5003;49477;35.676;139.586;2023-07-22T10:28:30;16;11;
62846;PMS5003;49477;35.676;139.586;2023-07-22T10:31:00;7;7;
62846;PMS5003;49477;35.676;139.586;2023-07-22T10:33:30;13;11;
62846;PMS5003;49477;35.676;139.586;2023-07-22T10:36:04;9;9;
62846;PMS5003;49477;35.676;139.586;2023-07-22T10:38:35;13;11;
62846;PMS5003;49477;35.676;139.586;2023-07-22T10:41:11;8;8;
62846;PMS5003;49477;35.676;139.586;2023-07-22T10:43:43;9;9;
62846;PMS5003;49477;35.676;139.586;2023-07-22T10:46:31;9;9;
62846;PMS5003;49477;35.676;139.586;2023-07-22T10:49:11;10;10;
62846;PMS5003;49477;35.676;139.586;2023-07-22T10:51:41;9;9;
62846;PMS5003;49477;35.676;139.586;2023-07-22T10:54:31;10;9;
62846;PMS5003;49477;35.676;139.586;2023-07-22T10:57:21;11;11;
62846;PMS5003;49477;35.676;139.586;2023-07-22T10:59:52;10;10;
62846;PMS5003;49477;35.676;139.586;2023-07-22T11:02:24;8;8;
62846;PMS5003;49477;35.676;139.586;2023-07-22T11:04:56;10;8;
62846;PMS5003;49477;35.676;139.586;2023-07-22T11:07:31;7;6;
62846;PMS5003;49477;35.676;139.586;2023-07-22T11:10:13;7;7;
62846;PMS5003;49477;35.676;139.586;2023-07-22T11:12:45;11;9;
62846;PMS5003;49477;35.676;139.586;2023-07-22T11:15:16;10;10;
62846;PMS5003;49477;35.676;139.586;2023-07-22T11:17:45;9;8;
62846;PMS5003;49477;35.676;139.586;2023-07-22T11:20:15;8;8;
62846;PMS5003;49477;35.676;139.586;2023-07-22T11:22:45;10;8;
62846;PMS5003;49477;35.676;139.586;2023-07-22T11:25:17;5;5;
62846;PMS5003;49477;35.676;139.586;2023-07-22T11:27:48;6;6;
62846;PMS5003;49477;35.676;139.586;2023-07-22T11:30:17;9;7;
62846;PMS5003;49477;35.676;139.586;2023-07-22T11:32:46;9;8;
62846;PMS5003;49477;35.676;139.586;2023-07-22T11:35:16;8;8;
62846;PMS5003;49477;35.676;139.586;2023-07-22T11:37:47;6;6;
62846;PMS5003;49477;35.676;139.586;2023-07-22T11:40:16;5;5;
62846;PMS5003;49477;35.676;139.586;2023-07-22T11:42:45;6;6;
62846;PMS5003;49477;35.676;139.586;2023-07-22T11:45:15;7;5;
62846;PMS5003;49477;35.676;139.586;2023-07-22T11:47:44;6;6;
62846;PMS5003;49477;35.676;139.586;2023-07-22T11:50:14;6;6;
62846;PMS5003;49477;35.676;139.586;2023-07-22T11:52:47;7;7;
62846;PMS5003;49477;35.676;139.586;2023-07-22T11:55:18;6;4;
62846;PMS5003;49477;35.676;139.586;2023-07-22T11:57:52;6;6;
62846;PMS5003;49477;35.676;139.586;2023-07-22T12:00:22;6;6;
62846;PMS5003;49477;35.676;139.586;2023-07-22T12:02:51;7;7;
62846;PMS5003;49477;35.676;139.586;2023-07-22T12:05:21;7;7;
62846;PMS5003;49477;35.676;139.586;2023-07-22T12:07:51;6;6;
62846;PMS5003;49477;35.676;139.586;2023-07-22T12:10:26;6;5;
62846;PMS5003;49477;35.676;139.586;2023-07-22T12:12:56;5;3;
62846;PMS5003;49477;35.676;139.586;2023-07-22T12:15:29;7;5;
62846;PMS5003;49477;35.676;139.586;2023-07-22T12:17:59;4;4;
62846;PMS5003;49477;35.676;139.586;2023-07-22T12:20:29;4;4;
62846;PMS5003;49477;35.676;139.586;2023-07-22T12:23:00;4;4;
62846;PMS5003;49477;35.676;139.586;2023-07-22T12:25:31;3;3;
62846;PMS5003;49477;35.676;139.586;2023-07-22T12:28:03;6;4;
62846;PMS5003;49477;35.676;139.586;2023-07-22T12:30:33;5;5;
62846;PMS5003;49477;35.676;139.586;2023-07-22T12:33:02;3;3;
62846;PMS5003;49477;35.676;139.586;2023-07-22T12:35:32;4;3;
62846;PMS5003;49477;35.676;139.586;2023-07-22T12:38:01;4;4;
62846;PMS5003;49477;35.676;139.586;2023-07-22T12:40:31;4;4;
62846;PMS5003;49477;35.676;139.586;2023-07-22T12:43:02;3;3;
62846;PMS5003;49477;35.676;139.586;2023-07-22T12:45:31;7;6;
62846;PMS5003;49477;35.676;139.586;2023-07-22T12:48:01;8;6;
62846;PMS5003;49477;35.676;139.586;2023-07-22T12:50:30;4;4;
62846;PMS5003;49477;35.676;139.586;2023-07-22T12:53:01;3;3;
62846;PMS5003;49477;35.676;139.586;2023-07-22T12:55:31;5;3;
62846;PMS5003;49477;35.676;139.586;2023-07-22T12:58:01;4;4;
62846;PMS5003;49477;35.676;139.586;2023-07-22T13:00:30;5;5;
62846;PMS5003;49477;35.676;139.586;2023-07-22T13:03:00;6;5;
62846;PMS5003;49477;35.676;139.586;2023-07-22T13:05:29;2;2;
62846;PMS5003;49477;35.676;139.586;2023-07-22T13:07:59;8;5;
62846;PMS5003;49477;35.676;139.586;2023-07-22T13:10:29;4;4;
62846;PMS5003;49477;35.676;139.586;2023-07-22T13:12:59;4;4;
62846;PMS5003;49477;35.676;139.586;2023-07-22T13:15:28;3;3;
62846;PMS5003;49477;35.676;139.586;2023-07-22T13:17:58;5;5;
62846;PMS5003;49477;35.676;139.586;2023-07-22T13:20:27;5;4;
62846;PMS5003;49477;35.676;139.586;2023-07-22T13:22:58;5;4;
62846;PMS5003;49477;35.676;139.586;2023-07-22T13:25:28;6;5;
62846;PMS5003;49477;35.676;139.586;2023-07-22T13:27:58;5;4;
62846;PMS5003;49477;35.676;139.586;2023-07-22T13:30:28;6;5;
62846;PMS5003;49477;35.676;139.586;2023-07-22T13:32:58;5;3;
62846;PMS5003;49477;35.676;139.586;2023-07-22T13:35:28;4;4;
62846;PMS5003;49477;35.676;139.586;2023-07-22T13:37:57;4;4;
62846;PMS5003;49477;35.676;139.586;2023-07-22T13:40:31;4;3;
62846;PMS5003;49477;35.676;139.586;2023-07-22T13:43:02;4;4;
62846;PMS5003;49477;35.676;139.586;2023-07-22T13:45:31;5;5;
62846;PMS5003;49477;35.676;139.586;2023-07-22T13:48:01;4;4;
62846;PMS5003;49477;35.676;139.586;2023-07-22T13:50:30;5;5;
62846;PMS5003;49477;35.676;139.586;2023-07-22T13:53:01;3;3;
62846;PMS5003;49477;35.676;139.586;2023-07-22T13:55:30;4;4;
62846;PMS5003;49477;35.676;139.586;2023-07-22T13:58:01;4;4;
62846;PMS5003;49477;35.676;139.586;2023-07-22T14:00:30;4;4;
62846;PMS5003;49477;35.676;139.586;2023-07-22T14:03:00;5;5;
62846;PMS5003;49477;35.676;139.586;2023-07-22T14:05:30;5;5;
62846;PMS5003;49477;35.676;139.586;2023-07-22T14:08:00;6;6;
62846;PMS5003;49477;35.676;139.586;2023-07-22T14:10:30;4;4;
62846;PMS5003;49477;35.676;139.586;2023-07-22T14:12:59;4;4;
62846;PMS5003;49477;35.676;139.586;2023-07-22T14:15:29;4;4;
62846;PMS5003;49477;35.676;139.586;2023-07-22T14:17:58;7;5;
62846;PMS5003;49477;35.676;139.586;2023-07-22T14:20:28;9;6;
62846;PMS5003;49477;35.676;139.586;2023-07-22T14:22:57;3;3;
62846;PMS5003;49477;35.676;139.586;2023-07-22T14:25:27;4;4;
62846;PMS5003;49477;35.676;139.586;2023-07-22T14:27:57;7;6;
62846;PMS5003;49477;35.676;139.586;2023-07-22T14:30:26;6;6;
62846;PMS5003;49477;35.676;139.586;2023-07-22T14:32:55;5;5;
62846;PMS5003;49477;35.676;139.586;2023-07-22T14:35:25;4;4;
62846;PMS5003;49477;35.676;139.586;2023-07-22T14:37:54;5;4;
62846;PMS5003;49477;35.676;139.586;2023-07-22T14:40:25;8;5;
62846;PMS5003;49477;35.676;139.586;2023-07-22T14:42:56;4;4;
62846;PMS5003;49477;35.676;139.586;2023-07-22T14:45:26;3;3;
62846;PMS5003;49477;35.676;139.586;2023-07-22T14:47:55;3;3;
62846;PMS5003;49477;35.676;139.586;2023-07-22T14:50:26;4;4;
62846;PMS5003;49477;35.676;139.586;2023-07-22T14:52:56;5;5;
62846;PMS5003;49477;35.676;139.586;2023-07-22T14:55:26;10;7;
62846;PMS5003;49477;35.676;139.586;2023-07-22T14:57:55;7;5;
62846;PMS5003;49477;35.676;139.586;2023-07-22T15:00:25;5;5;
62846;PMS5003;49477;35.676;139.586;2023-07-22T15:02:55;2;2;
62846;PMS5003;49477;35.676;139.586;2023-07-22T15:05:24;3;3;
62846;PMS5003;49477;35.676;139.586;2023-07-22T15:07:53;4;4;
62846;PMS5003;49477;35.676;139.586;2023-07-22T15:10:23;3;3;
62846;PMS5003;49477;35.676;139.586;2023-07-22T15:12:53;2;2;
62846;PMS5003;49477;35.676;139.586;2023-07-22T15:15:23;3;3;
62846;PMS5003;49477;35.676;139.586;2023-07-22T15:17:55;3;3;
62846;PMS5003;49477;35.676;139.586;2023-07-22T15:20:25;4;4;
62846;PMS5003;49477;35.676;139.586;2023-07-22T15:22:54;4;4;
62846;PMS5003;49477;35.676;139.586;2023-07-22T15:25:24;7;5;
62846;PMS5003;49477;35.676;139.586;2023-07-22T15:27:55;3;3;
62846;PMS5003;49477;35.676;139.586;2023-07-22T15:30:25;4;2;
62846;PMS5003;49477;35.676;139.586;2023-07-22T15:32:54;4;4;
62846;PMS5003;49477;35.676;139.586;2023-07-22T15:35:23;5;2;
62846;PMS5003;49477;35.676;139.586;2023-07-22T15:37:53;3;3;
62846;PMS5003;49477;35.676;139.586;2023-07-22T15:40:25;2;2;
62846;PMS5003;49477;35.676;139.586;2023-07-22T15:42:56;3;3;
62846;PMS5003;49477;35.676;139.586;2023-07-22T15:45:27;4;4;
62846;PMS5003;49477;35.676;139.586;2023-07-22T15:47:59;3;3;
62846;PMS5003;49477;35.676;139.586;2023-07-22T15:50:29;4;3;
62846;PMS5003;49477;35.676;139.586;2023-07-22T15:52:59;4;4;
62846;PMS5003;49477;35.676;139.586;2023-07-22T15:55:29;3;3;
62846;PMS5003;49477;35.676;139.586;2023-07-22T15:57:58;2;2;
62846;PMS5003;49477;35.676;139.586;2023-07-22T16:00:28;3;3;
62846;PMS5003;49477;35.676;139.586;2023-07-22T16:02:58;3;3;
62846;PMS5003;49477;35.676;139.586;2023-07-22T16:05:27;3;3;
62846;PMS5003;49477;35.676;139.586;2023-07-22T16:07:57;3;3;
62846;PMS5003;49477;35.676;139.586;2023-07-22T16:10:26;6;3;
62846;PMS5003;49477;35.676;139.586;2023-07-22T16:12:56;5;3;
62846;PMS5003;49477;35.676;139.586;2023-07-22T16:15:26;7;4;
62846;PMS5003;49477;35.676;139.586;2023-07-22T16:17:56;3;3;
62846;PMS5003;49477;35.676;139.586;2023-07-22T16:20:25;3;3;
62846;PMS5003;49477;35.676;139.586;2023-07-22T16:22:55;4;4;
62846;PMS5003;49477;35.676;139.586;2023-07-22T16:25:25;4;4;
62846;PMS5003;49477;35.676;139.586;2023-07-22T16:27:55;3;3;